createdAt,value
2022-08-01T00:00:58.223Z,16.91
2022-08-01T00:04:01.476Z,16.88
2022-08-01T00:07:04.886Z,16.89
2022-08-01T00:10:14.574Z,16.86
2022-08-01T00:13:17.208Z,16.89
2022-08-01T00:16:20.467Z,16.91
2022-08-01T00:19:23.012Z,16.91
2022-08-01T00:22:25.856Z,16.90
2022-08-01T00:25:34.360Z,16.83
2022-08-01T00:28:37.526Z,16.82
2022-08-01T00:31:40.144Z,16.63
2022-08-01T00:34:42.998Z,16.67
2022-08-01T00:37:45.755Z,16.61
2022-08-01T00:40:48.872Z,16.65
2022-08-01T00:43:51.420Z,16.58
2022-08-01T00:46:54.321Z,16.55
2022-08-01T00:49:56.977Z,16.48
2022-08-01T00:53:00.639Z,16.38
2022-08-01T00:56:03.487Z,16.31
2022-08-01T00:59:06.887Z,16.22
2022-08-01T01:02:14.853Z,16.16
2022-08-01T01:05:18.735Z,16.14
2022-08-01T01:08:25.890Z,16.09
2022-08-01T01:11:44.734Z,15.72
2022-08-01T01:14:58.115Z,16.04
2022-08-01T01:18:04.870Z,16.05
2022-08-01T01:21:19.366Z,16.04
2022-08-01T01:25:13.218Z,16.04
2022-08-01T01:28:15.654Z,16.06
2022-08-01T01:31:21.165Z,16.08
2022-08-01T01:34:24.245Z,16.05
2022-08-01T01:37:28.446Z,16.00
2022-08-01T01:40:31.499Z,15.98
2022-08-01T01:43:35.362Z,15.97
2022-08-01T01:46:38.735Z,15.91
2022-08-01T01:49:42.864Z,15.90
2022-08-01T01:52:46.254Z,15.89
2022-08-01T01:55:53.380Z,15.89
2022-08-01T01:59:01.036Z,15.96
2022-08-01T02:02:06.900Z,15.95
2022-08-01T02:05:12.618Z,15.99
2022-08-01T02:08:18.554Z,16.08
2022-08-01T02:11:23.204Z,16.07
2022-08-01T02:14:28.132Z,16.00
2022-08-01T02:17:31.957Z,16.09
2022-08-01T02:20:35.778Z,16.16
2022-08-01T02:23:40.101Z,16.15
2022-08-01T02:26:47.275Z,16.17
2022-08-01T02:30:07.786Z,16.19
2022-08-01T02:33:17.810Z,16.12
2022-08-01T02:36:29.705Z,16.07
2022-08-01T02:39:35.252Z,15.97
2022-08-01T02:42:38.997Z,15.95
2022-08-01T02:45:44.669Z,15.89
2022-08-01T02:48:48.761Z,15.88
2022-08-01T02:51:52.942Z,15.88
2022-08-01T02:54:57.644Z,15.64
2022-08-01T02:58:01.568Z,15.90
2022-08-01T03:01:07.003Z,15.87
2022-08-01T03:04:11.703Z,15.88
2022-08-01T03:07:15.942Z,15.86
2022-08-01T03:10:19.571Z,15.86
2022-08-01T03:13:23.083Z,15.89
2022-08-01T03:16:27.381Z,15.94
2022-08-01T03:19:31.408Z,15.96
2022-08-01T03:22:34.876Z,15.74
2022-08-01T03:25:40.494Z,15.93
2022-08-01T03:28:45.783Z,15.81
2022-08-01T03:31:49.421Z,15.77
2022-08-01T03:34:51.950Z,15.65
2022-08-01T03:41:25.825Z,15.51
2022-08-01T03:44:31.981Z,15.48
2022-08-01T03:47:43.497Z,15.50
2022-08-01T03:50:49.930Z,15.56
2022-08-01T03:53:55.534Z,15.59
2022-08-01T03:56:58.597Z,15.63
2022-08-01T04:00:01.466Z,15.72
2022-08-01T04:03:04.624Z,15.74
2022-08-01T04:06:09.534Z,15.68
2022-08-01T04:09:13.930Z,15.78
2022-08-01T04:12:16.926Z,15.80
2022-08-01T04:15:21.277Z,15.81
2022-08-01T04:18:24.227Z,15.79
2022-08-01T04:21:31.713Z,15.79
2022-08-01T04:24:36.337Z,15.78
2022-08-01T04:27:50.612Z,15.81
2022-08-01T04:31:01.404Z,15.91
2022-08-01T04:34:07.046Z,16.00
2022-08-01T04:37:11.317Z,16.08
2022-08-01T04:40:17.219Z,16.13
2022-08-01T04:43:20.410Z,16.22
2022-08-01T04:46:23.593Z,16.24
2022-08-01T04:49:26.575Z,16.43
2022-08-01T04:52:36.278Z,16.31
2022-08-01T04:55:39.081Z,16.64
2022-08-01T04:58:42.315Z,16.67
2022-08-01T05:01:49.719Z,16.63
2022-08-01T05:04:52.345Z,16.73
2022-08-01T05:07:55.215Z,16.75
2022-08-01T05:10:57.834Z,16.89
2022-08-01T05:14:01.671Z,16.96
2022-08-01T05:17:06.230Z,17.05
2022-08-01T05:20:10.189Z,17.11
2022-08-01T05:23:16.612Z,17.17
2022-08-01T05:26:26.897Z,17.29
2022-08-01T05:29:30.143Z,17.36
2022-08-01T05:32:33.552Z,17.65
2022-08-01T05:35:48.184Z,18.21
2022-08-01T05:38:51.999Z,18.06
2022-08-01T05:41:54.509Z,18.05
2022-08-01T05:44:57.375Z,18.05
2022-08-01T05:47:59.945Z,18.11
2022-08-01T05:51:03.689Z,18.15
2022-08-01T05:54:06.443Z,18.22
2022-08-01T05:57:09.552Z,18.28
2022-08-01T06:00:15.606Z,18.38
2022-08-01T06:03:18.868Z,18.49
2022-08-01T06:06:25.331Z,18.61
2022-08-01T06:09:28.631Z,18.75
2022-08-01T06:12:35.764Z,18.86
2022-08-01T06:15:38.882Z,18.93
2022-08-01T06:18:41.535Z,19.15
2022-08-01T06:21:44.395Z,19.40
2022-08-01T06:24:46.969Z,19.47
2022-08-01T06:27:50.763Z,19.55
2022-08-01T06:30:54.422Z,19.67
2022-08-01T06:33:58.241Z,19.82
2022-08-01T06:37:00.889Z,20.01
2022-08-01T06:40:16.816Z,20.19
2022-08-01T06:43:20.434Z,20.30
2022-08-01T06:46:23.310Z,20.57
2022-08-01T06:49:32.995Z,20.80
2022-08-01T06:52:36.315Z,20.94
2022-08-01T06:55:39.784Z,21.03
2022-08-01T06:58:42.711Z,21.18
2022-08-01T07:01:45.571Z,21.29
2022-08-01T07:04:48.850Z,21.46
2022-08-01T07:07:51.446Z,21.59
2022-08-01T07:10:54.601Z,21.74
2022-08-01T07:13:58.000Z,21.90
2022-08-01T07:17:00.912Z,22.10
2022-08-01T07:20:03.871Z,22.25
2022-08-01T07:23:07.010Z,22.43
2022-08-01T07:26:10.672Z,22.67
2022-08-01T07:29:13.691Z,22.85
2022-08-01T07:32:16.327Z,23.05
2022-08-01T07:35:21.242Z,23.20
2022-08-01T07:38:23.837Z,23.39
2022-08-01T07:42:06.073Z,23.60
2022-08-01T07:44:49.752Z,23.78
2022-08-01T07:47:52.667Z,24.05
2022-08-01T07:50:55.632Z,24.18
2022-08-01T07:53:58.410Z,24.38
2022-08-01T07:57:02.149Z,24.65
2022-08-01T08:00:09.176Z,24.89
2022-08-01T08:03:12.209Z,24.80
2022-08-01T08:06:14.966Z,24.88
2022-08-01T08:09:17.921Z,25.06
2022-08-01T08:12:28.905Z,25.34
2022-08-01T08:15:33.042Z,25.52
2022-08-01T08:18:36.939Z,25.86
2022-08-01T08:21:41.274Z,26.08
2022-08-01T08:24:45.475Z,26.29
2022-08-01T08:27:49.715Z,26.65
2022-08-01T08:30:54.087Z,26.76
2022-08-01T08:33:56.977Z,27.01
2022-08-01T08:37:00.146Z,27.23
2022-08-01T08:40:05.177Z,27.39
2022-08-01T08:43:08.054Z,27.45
2022-08-01T08:46:17.371Z,27.79
2022-08-01T08:49:23.223Z,27.91
2022-08-01T08:52:26.492Z,28.07
2022-08-01T08:55:29.415Z,28.21
2022-08-01T08:58:35.289Z,28.12
2022-08-01T09:01:38.041Z,28.54
2022-08-01T09:04:41.316Z,28.78
2022-08-01T09:07:43.929Z,29.03
2022-08-01T09:10:46.871Z,29.22
2022-08-01T09:14:14.816Z,29.22
2022-08-01T09:17:19.328Z,29.74
2022-08-01T09:20:25.095Z,29.39
2022-08-01T09:23:53.877Z,29.82
2022-08-01T09:26:58.051Z,30.11
2022-08-01T09:30:19.221Z,30.12
2022-08-01T09:33:26.091Z,30.50
2022-08-01T09:36:55.449Z,30.77
2022-08-01T09:39:59.122Z,31.13
2022-08-01T09:43:15.097Z,30.77
2022-08-01T09:46:18.149Z,30.11
2022-08-01T09:49:49.686Z,29.44
2022-08-01T09:52:55.387Z,28.92
2022-08-01T09:56:11.841Z,28.45
2022-08-01T09:59:14.417Z,28.17
2022-08-01T10:02:37.892Z,27.91
2022-08-01T10:05:43.913Z,27.82
2022-08-01T10:08:52.465Z,27.69
2022-08-01T10:11:56.109Z,27.49
2022-08-01T10:14:59.845Z,27.50
2022-08-01T10:18:06.241Z,27.43
2022-08-01T10:21:56.454Z,27.10
2022-08-01T10:24:44.742Z,27.37
2022-08-01T10:27:50.116Z,27.55
2022-08-01T10:30:53.551Z,27.68
2022-08-01T10:33:56.194Z,27.85
2022-08-01T10:37:01.351Z,27.73
2022-08-01T10:40:29.410Z,27.83
2022-08-01T10:43:32.293Z,28.13
2022-08-01T10:46:39.645Z,28.31
2022-08-01T10:50:08.656Z,28.08
2022-08-01T10:53:16.413Z,28.41
2022-08-01T10:56:49.242Z,28.40
2022-08-01T11:00:00.973Z,28.84
2022-08-01T11:03:05.310Z,30.01
2022-08-01T11:06:08.303Z,31.13
2022-08-01T11:09:16.422Z,31.61
2022-08-01T11:12:24.719Z,31.24
2022-08-01T11:15:31.689Z,30.54
2022-08-01T11:18:37.645Z,30.11
2022-08-01T11:22:02.086Z,29.90
2022-08-01T11:25:04.890Z,29.65
2022-08-01T11:28:28.587Z,29.65
2022-08-01T11:31:37.695Z,29.63
2022-08-01T11:34:56.358Z,29.40
2022-08-01T11:38:29.303Z,29.11
2022-08-01T11:41:37.950Z,28.87
2022-08-01T11:44:51.377Z,29.06
2022-08-01T11:47:54.632Z,30.09
2022-08-01T11:50:58.413Z,30.72
2022-08-01T11:54:05.401Z,31.56
2022-08-01T11:57:10.581Z,31.43
2022-08-01T12:00:18.585Z,31.35
2022-08-01T12:03:34.149Z,31.25
2022-08-01T12:06:37.300Z,31.59
2022-08-01T12:09:43.872Z,31.77
2022-08-01T12:13:11.043Z,32.51
2022-08-01T12:16:14.347Z,32.62
2022-08-01T12:19:24.099Z,32.57
2022-08-01T12:22:27.230Z,32.61
2022-08-01T12:25:30.458Z,32.93
2022-08-01T12:28:40.616Z,33.10
2022-08-01T12:31:43.236Z,33.33
2022-08-01T12:34:46.129Z,33.13
2022-08-01T12:37:51.155Z,33.39
2022-08-01T12:40:54.889Z,33.00
2022-08-01T12:43:57.536Z,32.98
2022-08-01T12:47:01.761Z,32.84
2022-08-01T12:50:15.498Z,33.20
2022-08-01T12:53:22.187Z,32.75
2022-08-01T12:56:34.039Z,32.19
2022-08-01T12:59:36.904Z,31.67
2022-08-01T13:02:40.436Z,31.80
2022-08-01T13:05:43.354Z,32.44
2022-08-01T13:08:46.632Z,32.53
2022-08-01T13:12:02.832Z,32.82
2022-08-01T13:15:26.329Z,32.36
2022-08-01T13:18:31.043Z,32.67
2022-08-01T13:21:52.322Z,32.76
2022-08-01T13:25:14.587Z,32.42
2022-08-01T13:28:23.855Z,32.65
2022-08-01T13:31:34.176Z,32.55
2022-08-01T13:34:36.795Z,32.36
2022-08-01T13:37:43.668Z,32.29
2022-08-01T13:40:46.912Z,32.11
2022-08-01T13:43:58.356Z,32.05
2022-08-01T13:47:14.953Z,32.04
2022-08-01T13:50:19.770Z,31.72
2022-08-01T13:53:22.487Z,31.78
2022-08-01T13:56:25.859Z,31.81
2022-08-01T13:59:28.676Z,31.98
2022-08-01T14:02:31.531Z,32.11
2022-08-01T14:05:34.336Z,31.79
2022-08-01T14:08:37.077Z,31.94
2022-08-01T14:11:40.095Z,31.80
2022-08-01T14:14:48.545Z,31.56
2022-08-01T14:17:52.177Z,31.43
2022-08-01T14:20:54.939Z,31.50
2022-08-01T14:24:02.089Z,31.23
2022-08-01T14:27:04.707Z,31.00
2022-08-01T14:30:08.866Z,31.25
2022-08-01T14:33:12.888Z,31.07
2022-08-01T14:36:30.701Z,30.94
2022-08-01T14:39:34.154Z,31.11
2022-08-01T14:42:39.954Z,31.02
2022-08-01T14:45:42.538Z,30.75
2022-08-01T14:48:45.874Z,30.70
2022-08-01T14:51:48.373Z,30.62
2022-08-01T14:54:51.210Z,30.32
2022-08-01T14:57:54.828Z,30.42
2022-08-01T15:00:59.131Z,30.51
2022-08-01T15:04:02.254Z,30.40
2022-08-01T15:07:07.557Z,30.24
2022-08-01T15:10:11.697Z,30.05
2022-08-01T15:13:14.696Z,30.32
2022-08-01T15:16:17.528Z,30.35
2022-08-01T15:19:20.350Z,30.24
2022-08-01T15:22:23.909Z,30.04
2022-08-01T15:25:26.948Z,29.88
2022-08-01T15:28:44.484Z,29.57
2022-08-01T15:31:47.346Z,29.06
2022-08-01T15:34:50.128Z,29.00
2022-08-01T15:37:53.009Z,28.84
2022-08-01T15:40:55.701Z,28.74
2022-08-01T15:43:58.766Z,28.80
2022-08-01T15:47:02.474Z,28.75
2022-08-01T15:50:06.746Z,28.94
2022-08-01T15:53:09.522Z,28.77
2022-08-01T15:56:12.417Z,28.69
2022-08-01T15:59:15.018Z,28.49
2022-08-01T16:02:18.050Z,28.42
2022-08-01T16:05:21.056Z,28.41
2022-08-01T16:08:24.114Z,28.38
2022-08-01T16:11:27.897Z,28.20
2022-08-01T16:14:30.569Z,28.03
2022-08-01T16:17:33.858Z,28.24
2022-08-01T16:20:40.175Z,28.14
2022-08-01T16:23:47.684Z,28.04
2022-08-01T16:26:50.965Z,28.04
2022-08-01T16:29:53.885Z,27.91
2022-08-01T16:33:07.604Z,27.86
2022-08-01T16:36:17.320Z,27.78
2022-08-01T16:39:23.286Z,27.68
2022-08-01T16:42:27.931Z,27.59
2022-08-01T16:45:30.530Z,27.54
2022-08-01T16:48:33.941Z,27.46
2022-08-01T16:51:47.685Z,27.36
2022-08-01T16:54:50.836Z,27.28
2022-08-01T16:57:53.417Z,27.23
2022-08-01T17:00:57.656Z,27.18
2022-08-01T17:04:19.618Z,27.08
2022-08-01T17:07:22.501Z,26.95
2022-08-01T17:10:26.082Z,26.90
2022-08-01T17:13:29.247Z,26.90
2022-08-01T17:16:36.016Z,26.83
2022-08-01T17:19:39.584Z,26.81
2022-08-01T17:22:42.164Z,26.76
2022-08-01T17:25:45.717Z,26.65
2022-08-01T17:28:48.716Z,26.61
2022-08-01T17:31:51.736Z,26.52
2022-08-01T17:34:54.341Z,26.48
2022-08-01T17:37:57.210Z,26.43
2022-08-01T17:40:59.874Z,26.36
2022-08-01T17:44:02.750Z,26.31
2022-08-01T17:47:06.743Z,26.26
2022-08-01T17:50:11.820Z,26.18
2022-08-01T17:53:20.838Z,26.13
2022-08-01T17:56:24.575Z,26.04
2022-08-01T17:59:27.208Z,25.97
2022-08-01T18:02:30.232Z,25.88
2022-08-01T18:05:37.084Z,25.84
2022-08-01T18:08:43.119Z,25.72
2022-08-01T18:11:46.001Z,25.66
2022-08-01T18:14:48.536Z,25.63
2022-08-01T18:17:52.274Z,25.58
2022-08-01T18:20:54.938Z,25.45
2022-08-01T18:24:01.593Z,25.44
2022-08-01T18:27:04.510Z,25.40
2022-08-01T18:30:08.227Z,25.33
2022-08-01T18:33:10.839Z,25.25
2022-08-01T18:36:29.106Z,25.23
2022-08-01T18:39:35.165Z,25.15
2022-08-01T18:42:38.990Z,25.13
2022-08-01T18:45:43.065Z,25.08
2022-08-01T18:48:46.275Z,25.07
2022-08-01T18:51:49.169Z,25.07
2022-08-01T18:54:52.224Z,25.06
2022-08-01T18:57:54.820Z,25.06
2022-08-01T19:00:57.801Z,25.00
2022-08-01T19:04:00.530Z,24.98
2022-08-01T19:07:04.053Z,24.92
2022-08-01T19:10:07.204Z,24.85
2022-08-01T19:13:10.832Z,24.86
2022-08-01T19:16:13.340Z,24.84
2022-08-01T19:19:27.383Z,24.84
2022-08-01T19:22:30.872Z,24.81
2022-08-01T19:25:33.790Z,24.73
2022-08-01T19:29:00.536Z,24.67
2022-08-01T19:32:09.033Z,24.67
2022-08-01T19:35:14.048Z,24.61
2022-08-01T19:38:17.831Z,24.60
2022-08-01T19:41:21.877Z,24.46
2022-08-01T19:44:25.735Z,24.29
2022-08-01T19:47:51.609Z,24.29
2022-08-01T19:50:51.540Z,24.19
2022-08-01T19:53:55.191Z,24.06
2022-08-01T19:57:01.075Z,24.01
2022-08-01T20:00:04.978Z,23.97
2022-08-01T20:03:09.413Z,23.91
2022-08-01T20:06:12.268Z,23.84
2022-08-01T20:09:15.188Z,23.79
2022-08-01T20:12:21.601Z,23.68
2022-08-01T20:15:25.017Z,23.68
2022-08-01T20:18:27.698Z,23.56
2022-08-01T20:21:31.152Z,23.57
2022-08-01T20:24:41.431Z,23.63
2022-08-01T20:27:45.671Z,23.60
2022-08-01T20:30:53.914Z,23.61
2022-08-01T20:33:57.242Z,23.52
2022-08-01T20:37:00.359Z,23.37
2022-08-01T20:40:03.966Z,23.32
2022-08-01T20:43:07.692Z,23.28
2022-08-01T20:46:10.574Z,23.21
2022-08-01T20:49:13.945Z,23.16
2022-08-01T20:52:16.970Z,23.07
2022-08-01T20:55:19.715Z,23.01
2022-08-01T20:58:56.588Z,22.97
2022-08-01T21:02:26.129Z,22.97
2022-08-01T21:05:56.040Z,22.95
2022-08-01T21:09:03.630Z,22.93
2022-08-01T21:12:08.536Z,22.99
2022-08-01T21:15:31.704Z,22.99
2022-08-01T21:18:39.680Z,22.97
2022-08-01T21:21:46.091Z,22.98
2022-08-01T21:25:00.139Z,23.03
2022-08-01T21:28:03.927Z,23.05
2022-08-01T21:31:08.691Z,23.06
2022-08-01T21:34:15.182Z,22.86
2022-08-01T21:37:18.590Z,22.79
2022-08-01T21:40:22.790Z,22.52
2022-08-01T21:43:25.602Z,22.39
2022-08-01T21:46:30.408Z,22.29
2022-08-01T21:49:33.411Z,22.20
2022-08-01T21:53:07.997Z,22.14
2022-08-01T21:56:37.042Z,22.01
2022-08-01T22:00:07.585Z,21.92
2022-08-01T22:03:23.687Z,21.78
2022-08-01T22:06:27.782Z,21.77
2022-08-01T22:09:32.482Z,21.75
2022-08-01T22:12:36.025Z,21.69
2022-08-01T22:15:44.438Z,21.65
2022-08-01T22:18:48.865Z,21.60
2022-08-01T22:21:52.449Z,21.54
2022-08-01T22:24:55.317Z,21.48
2022-08-01T22:28:06.088Z,21.36
2022-08-01T22:31:13.038Z,21.47
2022-08-01T22:34:19.022Z,21.56
2022-08-01T22:37:57.112Z,21.63
2022-08-01T22:40:52.213Z,21.59
2022-08-01T22:43:57.519Z,21.56
2022-08-01T22:47:16.635Z,21.51
2022-08-01T22:50:36.289Z,21.48
2022-08-01T22:54:04.108Z,21.45
2022-08-01T22:57:30.276Z,21.42
2022-08-01T23:00:35.746Z,21.32
2022-08-01T23:03:41.686Z,21.20
2022-08-01T23:06:47.993Z,21.16
2022-08-01T23:09:53.955Z,20.86
2022-08-01T23:12:57.858Z,21.04
2022-08-01T23:16:01.980Z,21.01
2022-08-01T23:19:05.329Z,20.95
2022-08-01T23:22:09.270Z,20.85
2022-08-01T23:25:15.450Z,20.82
2022-08-01T23:28:18.875Z,20.80
2022-08-01T23:31:26.959Z,20.77
2022-08-01T23:34:46.687Z,20.76
2022-08-01T23:37:51.164Z,20.71
2022-08-01T23:40:54.293Z,20.79
2022-08-01T23:43:57.213Z,20.77
2022-08-01T23:47:00.501Z,20.71
2022-08-01T23:50:04.228Z,20.69
2022-08-01T23:53:06.972Z,20.66
2022-08-01T23:56:10.057Z,20.66
2022-08-01T23:59:15.453Z,20.60
